Time;durP1;ratioP1;P1;durP2;ratioP2;P2;SDS_P1;SDS_P2;PMS_P1;PMS_P2;Temp;Humidity;BMP_temperature;BMP_pressure;BME280_temperature;BME280_humidity;BME280_pressure;Samples;Min_cycle;Max_cycle;Signal;HPM_P1;HPM_P2
2023/07/04 00:00:36;;;;;;;;;;;21.80;40.40;;;;;;6306384;22;20008;-76
2023/07/04 00:03:01;;;;;;;;;;;21.80;40.40;;;;;;6306531;22;19907;-76
2023/07/04 00:05:27;;;;;;;;;;;21.80;40.40;;;;;;6306004;22;19993;-76
2023/07/04 00:07:52;;;;;;;;;;;21.90;40.40;;;;;;6305729;22;19911;-75
2023/07/04 00:10:20;;;;;;;;;;;21.90;40.40;;;;;;6305683;22;20217;-76
2023/07/04 00:12:45;;;;;;;;;;;21.90;40.40;;;;;;6305536;22;19911;-76
2023/07/04 00:15:12;;;;;;;;;;;21.90;40.40;;;;;;6306337;22;19911;-76
2023/07/04 00:17:38;;;;;;;;;;;21.90;40.40;;;;;;6305739;22;19911;-77
2023/07/04 00:20:04;;;;;;;;;;;21.90;40.40;;;;;;6307921;22;20233;-75
2023/07/04 00:22:30;;;;;;;;;;;22.00;40.30;;;;;;6307426;22;19914;-76
2023/07/04 00:24:57;;;;;;;;;;;22.00;40.40;;;;;;6307912;22;19907;-76
2023/07/04 00:27:23;;;;;;;;;;;22.00;40.30;;;;;;6307800;22;19945;-75
2023/07/04 00:29:50;;;;;;;;;;;22.00;40.30;;;;;;6307973;22;19946;-75
2023/07/04 00:32:15;;;;;;;;;;;22.00;40.30;;;;;;6307723;22;19934;-76
2023/07/04 00:34:45;;;;;;;;;;;22.00;40.40;;;;;;6307696;22;19903;-76
2023/07/04 00:37:11;;;;;;;;;;;22.00;40.50;;;;;;6307750;22;19907;-76
2023/07/04 00:39:37;;;;;;;;;;;22.00;40.60;;;;;;6307712;22;20300;-76
2023/07/04 00:42:08;;;;;;;;;;;22.00;40.70;;;;;;6307732;22;20329;-76
2023/07/04 00:44:37;;;;;;;;;;;22.00;42.30;;;;;;6307579;22;20307;-75
2023/07/04 00:47:15;;;;;;;;;;;21.90;44.60;;;;;;6308264;22;20292;-75
2023/07/04 00:49:43;;;;;;;;;;;21.70;45.50;;;;;;6307648;22;20289;-76
2023/07/04 00:52:12;;;;;;;;;;;21.40;46.10;;;;;;6307468;22;19941;-76
2023/07/04 00:54:41;;;;;;;;;;;21.10;47.50;;;;;;6307260;22;19914;-75
2023/07/04 00:57:07;;;;;;;;;;;20.80;47.90;;;;;;6309312;22;19910;-76
2023/07/04 00:59:44;;;;;;;;;;;20.70;48.50;;;;;;6308732;22;19946;-76
2023/07/04 01:02:11;;;;;;;;;;;20.60;48.50;;;;;;6308216;22;19907;-70
2023/07/04 01:04:37;;;;;;;;;;;20.50;49.00;;;;;;6306994;22;19903;-68
2023/07/04 01:07:10;;;;;;;;;;;20.30;48.90;;;;;;6307593;22;19982;-70
2023/07/04 01:09:38;;;;;;;;;;;20.30;49.30;;;;;;6307350;22;19914;-69
2023/07/04 01:12:04;;;;;;;;;;;20.10;49.70;;;;;;6307315;22;19915;-70
2023/07/04 01:14:29;;;;;;;;;;;19.90;50.70;;;;;;6279717;22;19903;-69
2023/07/04 01:16:55;;;;;;;;;;;19.80;50.70;;;;;;6307641;22;19907;-69
2023/07/04 01:19:24;;;;;;;;;;;19.60;51.00;;;;;;6307061;22;19953;-70
2023/07/04 01:21:55;;;;;;;;;;;19.60;51.40;;;;;;6307522;22;19906;-70
2023/07/04 01:24:37;;;;;;;;;;;19.50;51.30;;;;;;6307202;22;19907;-70
2023/07/04 01:27:02;;;;;;;;;;;19.50;51.40;;;;;;6307014;22;19911;-70
2023/07/04 01:29:30;;;;;;;;;;;19.40;51.80;;;;;;6306553;22;19941;-70
2023/07/04 01:31:57;;;;;;;;;;;19.40;52.30;;;;;;6307312;22;19964;-70
2023/07/04 01:34:22;;;;;;;;;;;19.40;52.10;;;;;;6307006;22;19949;-70
2023/07/04 01:36:49;;;;;;;;;;;19.40;52.00;;;;;;6307363;22;19907;-70
2023/07/04 01:39:14;;;;;;;;;;;19.40;51.80;;;;;;6306865;22;19911;-71
2023/07/04 01:41:41;;;;;;;;;;;19.40;51.70;;;;;;6307543;22;20267;-70
2023/07/04 01:44:07;;;;;;;;;;;19.40;51.40;;;;;;6307455;22;19911;-69
2023/07/04 01:46:34;;;;;;;;;;;19.40;51.30;;;;;;6306950;22;20332;-70
2023/07/04 01:48:59;;;;;;;;;;;19.50;51.00;;;;;;6307248;22;19939;-69
2023/07/04 01:51:30;;;;;;;;;;;19.50;50.70;;;;;;6306797;22;19903;-70
2023/07/04 01:53:56;;;;;;;;;;;19.50;50.50;;;;;;6306205;22;20333;-70
2023/07/04 01:56:21;;;;;;;;;;;19.50;50.30;;;;;;6306417;22;20325;-70
2023/07/04 01:58:47;;;;;;;;;;;19.60;50.00;;;;;;6306536;22;19956;-70
2023/07/04 02:01:12;;;;;;;;;;;19.60;49.80;;;;;;6306648;22;19915;-69
2023/07/04 02:03:37;;;;;;;;;;;19.60;49.60;;;;;;6306385;22;19986;-70
2023/07/04 02:06:03;;;;;;;;;;;19.60;49.80;;;;;;6306563;22;19918;-70
2023/07/04 02:08:28;;;;;;;;;;;19.50;50.30;;;;;;6278947;22;19907;-71
2023/07/04 02:10:54;;;;;;;;;;;19.30;50.90;;;;;;6306837;22;19914;-70
2023/07/04 02:13:20;;;;;;;;;;;19.10;52.40;;;;;;6306597;22;19942;-71
2023/07/04 02:15:45;;;;;;;;;;;18.90;54.40;;;;;;6307160;22;19907;-71
2023/07/04 02:18:10;;;;;;;;;;;18.70;56.10;;;;;;6306450;22;19907;-70
2023/07/04 02:20:36;;;;;;;;;;;18.50;57.40;;;;;;6306726;22;19907;-71
2023/07/04 02:23:01;;;;;;;;;;;18.40;58.50;;;;;;6305896;22;19907;-71
2023/07/04 02:25:27;;;;;;;;;;;18.30;59.30;;;;;;6306581;22;19913;-71
2023/07/04 02:27:52;;;;;;;;;;;18.20;60.00;;;;;;6305914;22;20349;-71
2023/07/04 02:30:17;;;;;;;;;;;18.10;60.50;;;;;;6306442;22;19907;-71
2023/07/04 02:32:43;;;;;;;;;;;18.00;60.80;;;;;;6306071;22;19915;-70
2023/07/04 02:35:09;;;;;;;;;;;18.00;61.30;;;;;;6278929;22;19907;-70
2023/07/04 02:37:34;;;;;;;;;;;17.90;61.90;;;;;;6305670;22;19914;-70
2023/07/04 02:40:00;;;;;;;;;;;17.80;62.50;;;;;;6306025;22;19907;-70
2023/07/04 02:42:25;;;;;;;;;;;17.80;62.20;;;;;;6306023;22;19907;-72
2023/07/04 02:44:51;;;;;;;;;;;17.70;62.70;;;;;;6305889;22;19952;-70
2023/07/04 02:47:18;;;;;;;;;;;17.70;63.00;;;;;;6306101;22;19907;-70
2023/07/04 02:49:43;;;;;;;;;;;17.60;63.30;;;;;;6305938;22;20225;-70
2023/07/04 02:52:09;;;;;;;;;;;17.50;63.60;;;;;;6306130;22;19961;-70
2023/07/04 02:54:34;;;;;;;;;;;17.50;63.90;;;;;;6305625;22;19986;-70
2023/07/04 02:57:00;;;;;;;;;;;17.50;64.20;;;;;;6305861;22;19930;-69
2023/07/04 02:59:25;;;;;;;;;;;17.50;64.30;;;;;;6279145;22;19903;-71
2023/07/04 03:01:52;;;;;;;;;;;17.50;64.30;;;;;;6306281;22;19989;-69
2023/07/04 03:04:17;;;;;;;;;;;17.50;64.60;;;;;;6305702;22;19986;-70
2023/07/04 03:06:43;;;;;;;;;;;17.50;64.70;;;;;;6306455;22;20269;-69
2023/07/04 03:09:08;;;;;;;;;;;17.50;64.80;;;;;;6305912;22;19914;-69
2023/07/04 03:11:34;;;;;;;;;;;17.50;64.90;;;;;;6306111;22;20271;-69
2023/07/04 03:13:59;;;;;;;;;;;17.50;65.10;;;;;;6305582;22;19936;-69
2023/07/04 03:16:25;;;;;;;;;;;17.60;65.20;;;;;;6306419;22;19934;-70
2023/07/04 03:18:50;;;;;;;;;;;17.70;65.20;;;;;;6305799;22;19953;-69
2023/07/04 03:21:16;;;;;;;;;;;17.60;65.30;;;;;;6306173;22;19907;-69
2023/07/04 03:23:41;;;;;;;;;;;17.70;65.50;;;;;;6305570;22;19942;-69
2023/07/04 03:26:06;;;;;;;;;;;17.70;65.60;;;;;;6306019;22;20329;-69
2023/07/04 03:28:32;;;;;;;;;;;17.80;65.50;;;;;;6305690;22;19907;-70
2023/07/04 03:30:57;;;;;;;;;;;17.80;65.40;;;;;;6306288;22;20240;-69
2023/07/04 03:33:23;;;;;;;;;;;17.70;65.50;;;;;;6305491;22;19922;-69
2023/07/04 03:35:48;;;;;;;;;;;17.70;65.50;;;;;;6305858;22;19911;-70
2023/07/04 03:38:14;;;;;;;;;;;17.70;65.40;;;;;;6305559;22;19907;-69
2023/07/04 03:40:39;;;;;;;;;;;17.70;65.50;;;;;;6305795;22;19914;-69
2023/07/04 03:43:04;;;;;;;;;;;17.70;65.70;;;;;;6305181;22;19933;-70
2023/07/04 03:45:30;;;;;;;;;;;17.70;66.10;;;;;;6305718;22;19910;-69
2023/07/04 03:47:55;;;;;;;;;;;17.70;66.20;;;;;;6305220;22;19987;-69
2023/07/04 03:50:21;;;;;;;;;;;17.70;66.30;;;;;;6305139;22;19907;-69
2023/07/04 03:52:46;;;;;;;;;;;17.80;66.30;;;;;;6305300;22;19911;-69
2023/07/04 03:55:12;;;;;;;;;;;17.80;66.60;;;;;;6305427;22;19907;-69
2023/07/04 03:57:37;;;;;;;;;;;17.90;66.70;;;;;;6305171;22;19907;-69
2023/07/04 04:00:06;;;;;;;;;;;17.90;66.80;;;;;;6305447;22;19917;-69
2023/07/04 04:02:31;;;;;;;;;;;18.00;66.80;;;;;;6305185;22;20377;-69
2023/07/04 04:04:56;;;;;;;;;;;18.00;66.60;;;;;;6277565;22;19993;-69
2023/07/04 04:07:23;;;;;;;;;;;18.10;66.70;;;;;;6305198;22;20229;-69
2023/07/04 04:09:49;;;;;;;;;;;18.20;66.60;;;;;;6305482;22;19903;-69
2023/07/04 04:12:15;;;;;;;;;;;18.20;66.70;;;;;;6277727;22;19911;-69
2023/07/04 04:14:40;;;;;;;;;;;18.20;66.70;;;;;;6305163;22;19903;-69
2023/07/04 04:17:06;;;;;;;;;;;18.30;66.70;;;;;;6305636;22;19907;-68
2023/07/04 04:19:31;;;;;;;;;;;18.30;66.80;;;;;;6305163;22;19986;-69
2023/07/04 04:21:56;;;;;;;;;;;18.40;66.90;;;;;;6305126;22;19907;-69
2023/07/04 04:24:22;;;;;;;;;;;18.50;66.90;;;;;;6305360;22;20277;-69
2023/07/04 04:26:48;;;;;;;;;;;18.50;66.80;;;;;;6305794;22;19961;-69
2023/07/04 04:29:15;;;;;;;;;;;18.60;66.60;;;;;;6305031;22;19911;-69
2023/07/04 04:31:41;;;;;;;;;;;18.60;66.50;;;;;;6305988;22;19907;-69
2023/07/04 04:34:06;;;;;;;;;;;18.60;66.70;;;;;;6305080;22;20252;-69
2023/07/04 04:36:33;;;;;;;;;;;18.70;66.50;;;;;;6305911;22;19907;-68
2023/07/04 04:39:01;;;;;;;;;;;18.70;66.70;;;;;;6305307;22;19942;-68
2023/07/04 04:41:27;;;;;;;;;;;18.70;66.40;;;;;;6305397;22;19907;-69
2023/07/04 04:43:54;;;;;;;;;;;18.70;66.30;;;;;;6305328;22;19942;-69
2023/07/04 04:46:20;;;;;;;;;;;18.70;66.20;;;;;;6305763;22;19922;-68
2023/07/04 04:48:45;;;;;;;;;;;18.80;66.40;;;;;;6305351;22;19907;-69
2023/07/04 04:51:12;;;;;;;;;;;18.80;66.50;;;;;;6305152;22;19984;-69
2023/07/04 04:53:39;;;;;;;;;;;18.80;66.50;;;;;;6305185;22;19926;-69
2023/07/04 04:56:04;;;;;;;;;;;18.80;66.60;;;;;;6304760;22;19915;-69
2023/07/04 04:58:30;;;;;;;;;;;18.90;66.40;;;;;;6305229;22;20076;-68
2023/07/04 05:00:55;;;;;;;;;;;19.00;66.30;;;;;;6304799;22;20317;-69
2023/07/04 05:03:21;;;;;;;;;;;19.00;66.50;;;;;;6305295;22;19930;-69
2023/07/04 05:05:46;;;;;;;;;;;19.00;66.30;;;;;;6306958;22;19907;-69
2023/07/04 05:08:12;;;;;;;;;;;19.10;66.20;;;;;;6307075;22;19982;-68
2023/07/04 05:10:37;;;;;;;;;;;19.10;66.20;;;;;;6307147;22;19910;-68
2023/07/04 05:13:02;;;;;;;;;;;19.10;66.50;;;;;;6306684;22;19914;-68
2023/07/04 05:15:28;;;;;;;;;;;19.20;66.70;;;;;;6306885;22;19907;-69
2023/07/04 05:17:53;;;;;;;;;;;19.20;66.60;;;;;;6306893;22;19907;-69
2023/07/04 05:20:23;;;;;;;;;;;19.20;66.30;;;;;;6306873;22;19983;-68
2023/07/04 05:22:56;;;;;;;;;;;19.20;66.60;;;;;;6307068;22;19914;-68
2023/07/04 05:25:22;;;;;;;;;;;19.20;66.50;;;;;;6307589;22;19990;-67
2023/07/04 05:27:49;;;;;;;;;;;19.20;66.70;;;;;;6306864;22;19917;-69
2023/07/04 05:30:15;;;;;;;;;;;19.30;66.60;;;;;;6307127;22;19914;-69
2023/07/04 05:32:40;;;;;;;;;;;19.40;66.70;;;;;;6305941;22;19911;-69
2023/07/04 05:35:06;;;;;;;;;;;19.50;66.00;;;;;;6306631;22;19907;-67
2023/07/04 05:37:34;;;;;;;;;;;19.70;66.70;;;;;;6306791;22;19952;-69
2023/07/04 05:39:59;;;;;;;;;;;20.20;68.00;;;;;;6306823;22;19907;-67
2023/07/04 05:42:26;;;;;;;;;;;20.40;66.60;;;;;;6306962;22;19914;-67
2023/07/04 05:44:51;;;;;;;;;;;20.50;66.40;;;;;;6306720;22;20343;-68
2023/07/04 05:47:17;;;;;;;;;;;20.50;65.50;;;;;;6279237;22;19907;-68
2023/07/04 05:49:42;;;;;;;;;;;20.50;64.80;;;;;;6306870;22;19903;-67
2023/07/04 05:52:08;;;;;;;;;;;20.50;64.50;;;;;;6306656;22;19915;-68
2023/07/04 05:54:33;;;;;;;;;;;20.50;64.10;;;;;;6306528;22;19907;-67
2023/07/04 05:56:59;;;;;;;;;;;20.50;63.10;;;;;;6279132;22;19907;-68
2023/07/04 05:59:24;;;;;;;;;;;20.50;63.80;;;;;;6305379;22;19903;-68
2023/07/04 06:01:53;;;;;;;;;;;20.40;63.40;;;;;;6305013;22;19910;-68
2023/07/04 06:04:18;;;;;;;;;;;20.30;63.20;;;;;;6304574;22;19911;-68
2023/07/04 06:06:48;;;;;;;;;;;20.20;64.10;;;;;;6305783;22;19922;-68
2023/07/04 06:09:14;;;;;;;;;;;20.20;64.60;;;;;;6305368;22;19910;-68
2023/07/04 06:11:45;;;;;;;;;;;20.20;65.30;;;;;;6305878;22;19911;-68
2023/07/04 06:14:14;;;;;;;;;;;20.30;65.10;;;;;;6302027;22;19915;-68
2023/07/04 06:16:39;;;;;;;;;;;20.40;65.20;;;;;;6306569;22;19951;-68
2023/07/04 06:19:05;;;;;;;;;;;20.60;64.90;;;;;;6305648;22;20360;-69
2023/07/04 06:21:30;;;;;;;;;;;20.70;65.70;;;;;;6306189;22;20313;-69
2023/07/04 06:23:56;;;;;;;;;;;20.90;65.30;;;;;;6301388;22;20320;-70
2023/07/04 06:26:22;;;;;;;;;;;21.10;65.80;;;;;;6306163;22;19915;-69
2023/07/04 06:28:49;;;;;;;;;;;21.40;65.90;;;;;;6276920;22;19914;-70
2023/07/04 06:31:15;;;;;;;;;;;21.70;64.30;;;;;;6306648;22;19906;-69
2023/07/04 06:33:41;;;;;;;;;;;21.90;63.10;;;;;;6302339;22;19911;-68
2023/07/04 06:36:07;;;;;;;;;;;22.00;62.80;;;;;;6306527;22;19988;-69
2023/07/04 06:38:33;;;;;;;;;;;22.10;59.50;;;;;;6306080;22;19911;-68
2023/07/04 06:40:59;;;;;;;;;;;22.10;58.30;;;;;;6305579;22;19933;-69
2023/07/04 06:43:26;;;;;;;;;;;22.00;58.80;;;;;;6301847;22;19985;-68
2023/07/04 06:45:51;;;;;;;;;;;22.10;59.50;;;;;;6305957;22;20231;-69
2023/07/04 06:48:17;;;;;;;;;;;22.20;58.70;;;;;;6305895;22;19978;-69
2023/07/04 06:50:42;;;;;;;;;;;22.20;59.50;;;;;;6277838;22;19906;-69
2023/07/04 06:53:08;;;;;;;;;;;22.30;59.30;;;;;;6305640;22;19911;-69
2023/07/04 06:55:33;;;;;;;;;;;22.60;59.10;;;;;;6305692;22;19926;-69
2023/07/04 06:57:59;;;;;;;;;;;22.80;59.40;;;;;;6306154;22;19907;-69
2023/07/04 07:00:24;;;;;;;;;;;23.10;58.00;;;;;;6304658;22;19914;-70
2023/07/04 07:02:50;;;;;;;;;;;23.30;56.10;;;;;;6306028;22;19913;-68
2023/07/04 07:05:17;;;;;;;;;;;23.70;56.50;;;;;;6305523;22;19907;-68
2023/07/04 07:07:42;;;;;;;;;;;23.80;55.90;;;;;;6304221;22;20321;-68
2023/07/04 07:10:08;;;;;;;;;;;24.10;54.50;;;;;;6305901;22;19973;-68
2023/07/04 07:12:34;;;;;;;;;;;24.20;54.50;;;;;;6305764;22;20329;-68
2023/07/04 07:14:59;;;;;;;;;;;24.40;52.60;;;;;;6301131;22;19914;-71
2023/07/04 07:17:25;;;;;;;;;;;24.50;53.30;;;;;;6305468;22;19986;-69
2023/07/04 07:19:50;;;;;;;;;;;24.70;54.50;;;;;;6306019;22;19915;-68
2023/07/04 07:22:16;;;;;;;;;;;25.40;55.90;;;;;;6304212;22;19907;-70
2023/07/04 07:24:41;;;;;;;;;;;26.10;54.00;;;;;;6302324;22;19906;-68
2023/07/04 07:27:07;;;;;;;;;;;26.80;52.30;;;;;;6304978;22;19910;-68
2023/07/04 07:29:36;;;;;;;;;;;27.50;50.70;;;;;;6301689;22;19911;-68
2023/07/04 07:32:05;;;;;;;;;;;28.20;48.50;;;;;;6305160;22;19911;-68
2023/07/04 07:34:30;;;;;;;;;;;28.80;47.80;;;;;;6274076;22;19903;-68
2023/07/04 07:36:56;;;;;;;;;;;29.50;47.00;;;;;;6305959;22;19994;-69
2023/07/04 07:39:21;;;;;;;;;;;30.10;44.50;;;;;;6305111;22;20325;-69
2023/07/04 07:41:47;;;;;;;;;;;30.60;42.40;;;;;;6305950;22;20236;-69
2023/07/04 07:44:13;;;;;;;;;;;31.00;40.80;;;;;;6273557;22;19918;-69
2023/07/04 07:46:39;;;;;;;;;;;31.40;39.90;;;;;;6305114;22;19910;-69
2023/07/04 07:49:05;;;;;;;;;;;31.80;39.00;;;;;;6305250;22;20324;-69
2023/07/04 07:51:30;;;;;;;;;;;32.30;38.50;;;;;;6304380;22;20271;-69
2023/07/04 07:53:56;;;;;;;;;;;32.80;36.20;;;;;;6301816;22;20245;-69
2023/07/04 07:56:23;;;;;;;;;;;33.10;35.20;;;;;;6304259;22;20018;-70
2023/07/04 07:58:48;;;;;;;;;;;33.50;34.60;;;;;;6305392;22;20297;-69
2023/07/04 08:01:15;;;;;;;;;;;33.80;32.50;;;;;;6305487;22;19914;-68
2023/07/04 08:03:41;;;;;;;;;;;33.80;31.10;;;;;;6302258;22;20330;-68
2023/07/04 08:06:07;;;;;;;;;;;34.10;30.50;;;;;;6304361;22;19978;-68
2023/07/04 08:08:33;;;;;;;;;;;34.00;30.60;;;;;;6305282;22;19932;-68
2023/07/04 08:10:58;;;;;;;;;;;33.80;31.10;;;;;;6304848;22;19913;-68
2023/07/04 08:13:23;;;;;;;;;;;33.50;31.00;;;;;;6301754;22;19915;-69
2023/07/04 08:15:55;;;;;;;;;;;33.20;31.00;;;;;;6305364;22;19937;-69
2023/07/04 08:18:21;;;;;;;;;;;32.80;31.30;;;;;;6305270;22;19953;-69
2023/07/04 08:20:57;;;;;;;;;;;32.40;31.40;;;;;;6305282;22;19907;-69
2023/07/04 08:23:22;;;;;;;;;;;32.20;32.20;;;;;;6302285;22;20229;-70
2023/07/04 08:25:48;;;;;;;;;;;32.30;30.60;;;;;;6303684;22;19960;-70
2023/07/04 08:28:15;;;;;;;;;;;32.30;31.60;;;;;;6303780;22;19933;-69
2023/07/04 08:30:41;;;;;;;;;;;32.80;32.00;;;;;;6304937;22;20206;-69
2023/07/04 08:33:06;;;;;;;;;;;33.00;30.90;;;;;;6303767;22;19917;-70
2023/07/04 08:35:31;;;;;;;;;;;33.10;30.30;;;;;;6302483;22;19907;-70
2023/07/04 08:37:57;;;;;;;;;;;33.30;29.50;;;;;;6278201;22;19985;-69
2023/07/04 08:40:23;;;;;;;;;;;33.40;28.90;;;;;;6306530;22;19941;-69
2023/07/04 08:42:48;;;;;;;;;;;33.60;28.00;;;;;;6306882;22;19914;-70
2023/07/04 08:45:20;;;;;;;;;;;33.70;28.00;;;;;;6304309;22;19913;-69
2023/07/04 08:47:45;;;;;;;;;;;33.80;27.70;;;;;;6306459;22;19907;-69
2023/07/04 08:50:14;;;;;;;;;;;33.80;27.00;;;;;;6279320;22;19907;-70
2023/07/04 08:52:44;;;;;;;;;;;33.50;27.30;;;;;;6306073;22;19989;-69
2023/07/04 08:55:13;;;;;;;;;;;33.30;27.70;;;;;;6302609;22;19978;-70
2023/07/04 08:57:45;;;;;;;;;;;33.10;27.00;;;;;;6278939;22;19907;-69
2023/07/04 09:00:20;;;;;;;;;;;33.20;27.90;;;;;;6306977;22;19942;-69
2023/07/04 09:03:04;;;;;;;;;;;33.50;28.10;;;;;;6306478;22;20296;-69
2023/07/04 09:05:32;;;;;;;;;;;34.10;28.40;;;;;;6276850;22;19914;-71
2023/07/04 09:08:04;;;;;;;;;;;34.80;26.30;;;;;;6279618;22;20369;-70
2023/07/04 09:10:35;;;;;;;;;;;35.10;25.90;;;;;;6306581;22;19911;-71
2023/07/04 09:13:02;;;;;;;;;;;35.30;24.90;;;;;;6305313;22;19911;-70
2023/07/04 09:15:30;;;;;;;;;;;35.30;23.80;;;;;;6303837;22;20001;-70
2023/07/04 09:18:14;;;;;;;;;;;35.50;24.40;;;;;;6306201;22;19907;-70
2023/07/04 09:20:45;;;;;;;;;;;35.70;24.10;;;;;;6304559;22;19911;-70
2023/07/04 09:23:17;;;;;;;;;;;36.00;23.20;;;;;;6304090;22;19907;-70
2023/07/04 09:25:43;;;;;;;;;;;36.30;23.60;;;;;;6303701;22;20327;-68
2023/07/04 09:28:08;;;;;;;;;;;36.70;23.30;;;;;;6306706;22;19914;-70
2023/07/04 09:30:34;;;;;;;;;;;36.80;23.00;;;;;;6305960;22;20327;-69
2023/07/04 09:32:59;;;;;;;;;;;36.80;22.30;;;;;;6305599;22;20509;-71
2023/07/04 09:35:25;;;;;;;;;;;36.60;22.10;;;;;;6304178;22;19911;-70
2023/07/04 09:37:55;;;;;;;;;;;36.60;22.00;;;;;;6279190;22;20317;-70
2023/07/04 09:40:39;;;;;;;;;;;36.60;21.30;;;;;;6279393;22;19942;-70
2023/07/04 09:43:04;;;;;;;;;;;36.30;20.80;;;;;;6305911;22;19907;-70
2023/07/04 09:45:30;;;;;;;;;;;35.80;21.80;;;;;;6304978;22;19907;-70
2023/07/04 09:47:55;;;;;;;;;;;36.00;21.90;;;;;;6306483;22;19907;-69
2023/07/04 09:50:26;;;;;;;;;;;36.30;21.30;;;;;;6306218;22;20321;-69
2023/07/04 09:53:00;;;;;;;;;;;36.20;21.50;;;;;;6306152;22;19915;-70
2023/07/04 09:55:26;;;;;;;;;;;36.00;20.60;;;;;;6304158;22;19974;-70
2023/07/04 09:57:52;;;;;;;;;;;35.60;21.20;;;;;;6306378;22;19907;-70
2023/07/04 10:00:19;;;;;;;;;;;35.50;21.90;;;;;;6306755;22;19972;-70
2023/07/04 10:02:46;;;;;;;;;;;35.80;22.40;;;;;;6305975;22;20329;-70
2023/07/04 10:05:20;;;;;;;;;;;35.90;22.50;;;;;;6303686;22;20313;-70
2023/07/04 10:07:58;;;;;;;;;;;36.00;22.40;;;;;;6306252;22;20364;-70
2023/07/04 10:10:23;;;;;;;;;;;35.80;22.20;;;;;;6306765;22;19907;-68
2023/07/04 10:12:49;;;;;;;;;;;35.40;21.70;;;;;;6305854;22;20331;-71
2023/07/04 10:15:26;;;;;;;;;;;35.00;21.80;;;;;;6303257;22;20263;-68
2023/07/04 10:17:52;;;;;;;;;;;34.80;22.60;;;;;;6306120;22;20014;-70
2023/07/04 10:20:17;;;;;;;;;;;34.80;23.10;;;;;;6306434;22;19957;-72
2023/07/04 10:22:52;;;;;;;;;;;35.00;23.00;;;;;;6306318;22;20249;-70
2023/07/04 10:25:19;;;;;;;;;;;35.20;22.20;;;;;;6303462;22;19951;-71
2023/07/04 10:27:49;;;;;;;;;;;35.50;21.30;;;;;;6306257;22;19914;-70
2023/07/04 10:30:18;;;;;;;;;;;35.40;21.10;;;;;;6306909;22;19903;-70
2023/07/04 10:32:48;;;;;;;;;;;35.10;20.80;;;;;;6306046;22;20170;-70
2023/07/04 10:35:18;;;;;;;;;;;34.90;21.50;;;;;;6303461;22;19985;-69
2023/07/04 10:37:47;;;;;;;;;;;35.00;22.10;;;;;;6306569;22;19915;-70
2023/07/04 10:40:18;;;;;;;;;;;35.40;21.50;;;;;;6306800;22;19903;-70
2023/07/04 10:42:55;;;;;;;;;;;35.60;21.50;;;;;;6306158;22;19915;-67
2023/07/04 10:45:21;;;;;;;;;;;35.80;21.80;;;;;;6303201;22;19910;-70
2023/07/04 10:47:49;;;;;;;;;;;36.00;20.80;;;;;;6278572;22;20321;-70
2023/07/04 10:50:19;;;;;;;;;;;35.80;21.20;;;;;;6306372;22;19907;-69
2023/07/04 10:52:47;;;;;;;;;;;35.70;21.50;;;;;;6305395;22;19914;-70
2023/07/04 10:55:42;;;;;;;;;;;35.70;20.70;;;;;;6302654;22;20331;-70
2023/07/04 10:58:07;;;;;;;;;;;35.60;20.40;;;;;;6273228;22;19915;-70
2023/07/04 11:00:45;;;;;;;;;;;35.80;20.60;;;;;;6305945;22;20328;-70
2023/07/04 11:03:15;;;;;;;;;;;35.90;20.60;;;;;;6303992;22;20245;-69
2023/07/04 11:05:42;;;;;;;;;;;36.20;20.40;;;;;;6303963;22;19907;-69
2023/07/04 11:08:18;;;;;;;;;;;36.00;20.20;;;;;;6305626;22;19911;-69
2023/07/04 11:10:45;;;;;;;;;;;35.70;20.60;;;;;;6305922;22;20361;-69
2023/07/04 11:13:19;;;;;;;;;;;35.30;21.00;;;;;;6304247;22;19992;-68
2023/07/04 11:15:52;;;;;;;;;;;35.20;21.30;;;;;;6303228;22;20240;-69
2023/07/04 11:18:18;;;;;;;;;;;35.00;21.10;;;;;;6278480;22;19907;-70
2023/07/04 11:20:51;;;;;;;;;;;34.70;21.10;;;;;;6305964;22;19911;-70
2023/07/04 11:23:19;;;;;;;;;;;34.40;20.80;;;;;;6303860;22;20295;-69
2023/07/04 11:25:44;;;;;;;;;;;34.10;21.10;;;;;;6304041;22;19930;-69
2023/07/04 11:28:15;;;;;;;;;;;34.00;21.70;;;;;;6305048;22;19907;-69
2023/07/04 11:30:41;;;;;;;;;;;34.30;21.70;;;;;;6305688;22;19907;-69
2023/07/04 11:33:07;;;;;;;;;;;34.60;21.60;;;;;;6304004;22;20046;-70
2023/07/04 11:35:33;;;;;;;;;;;34.80;21.20;;;;;;6303428;22;20028;-70
2023/07/04 11:38:04;;;;;;;;;;;34.90;21.10;;;;;;6305747;22;20337;-70
2023/07/04 11:40:31;;;;;;;;;;;35.20;21.30;;;;;;6304392;22;19917;-69
2023/07/04 11:43:04;;;;;;;;;;;35.70;21.10;;;;;;6305901;22;19911;-69
2023/07/04 11:45:30;;;;;;;;;;;36.00;20.80;;;;;;6302817;22;20029;-68
2023/07/04 11:48:01;;;;;;;;;;;36.10;20.50;;;;;;6278471;22;19907;-68
2023/07/04 11:50:29;;;;;;;;;;;36.20;20.50;;;;;;6306107;22;20364;-69
2023/07/04 11:52:58;;;;;;;;;;;36.40;20.50;;;;;;6305512;22;19911;-68
2023/07/04 11:55:29;;;;;;;;;;;36.70;20.40;;;;;;6302287;22;19919;-68
2023/07/04 11:57:59;;;;;;;;;;;36.80;20.30;;;;;;6305647;22;19914;-68
2023/07/04 12:00:37;;;;;;;;;;;37.00;19.80;;;;;;6304843;22;19907;-69
2023/07/04 12:03:23;;;;;;;;;;;37.00;19.80;;;;;;6304661;22;20321;-69
2023/07/04 12:05:49;;;;;;;;;;;37.20;19.60;;;;;;6303607;22;19929;-70
2023/07/04 12:08:21;;;;;;;;;;;37.30;19.50;;;;;;6304861;22;19945;-70
2023/07/04 12:10:47;;;;;;;;;;;37.50;19.30;;;;;;6305058;22;19910;-70
2023/07/04 12:13:18;;;;;;;;;;;37.30;19.30;;;;;;6302762;22;19993;-69
2023/07/04 12:15:45;;;;;;;;;;;37.30;18.90;;;;;;6305671;22;19911;-68
2023/07/04 12:18:32;;;;;;;;;;;37.10;19.10;;;;;;6306658;22;20321;-70
2023/07/04 12:20:57;;;;;;;;;;;37.00;19.30;;;;;;6307867;22;19918;-70
2023/07/04 12:23:23;;;;;;;;;;;37.00;19.00;;;;;;6278271;22;20346;-69
2023/07/04 12:25:50;;;;;;;;;;;36.80;18.70;;;;;;6278047;22;19907;-69
2023/07/04 12:28:16;;;;;;;;;;;36.70;19.00;;;;;;6307630;22;19911;-69
2023/07/04 12:30:47;;;;;;;;;;;36.70;19.10;;;;;;6306572;22;19906;-69
2023/07/04 12:33:20;;;;;;;;;;;36.70;19.20;;;;;;6278057;22;20325;-70
2023/07/04 12:35:52;;;;;;;;;;;36.50;19.70;;;;;;6305597;22;19907;-70
2023/07/04 12:38:17;;;;;;;;;;;36.40;19.80;;;;;;6307047;22;19907;-71
2023/07/04 12:40:45;;;;;;;;;;;36.40;18.90;;;;;;6307422;22;19918;-67
2023/07/04 12:43:12;;;;;;;;;;;36.20;19.30;;;;;;6277629;22;20254;-70
2023/07/04 12:45:39;;;;;;;;;;;36.20;19.50;;;;;;6303756;22;19911;-68
2023/07/04 12:48:04;;;;;;;;;;;36.30;19.60;;;;;;6307532;22;19918;-69
2023/07/04 12:50:30;;;;;;;;;;;36.70;19.10;;;;;;6305713;22;20273;-69
2023/07/04 12:52:56;;;;;;;;;;;36.70;18.70;;;;;;6279149;22;20353;-68
2023/07/04 12:55:27;;;;;;;;;;;36.50;18.80;;;;;;6303894;22;19925;-69
2023/07/04 12:57:54;;;;;;;;;;;36.30;18.90;;;;;;6307158;22;19914;-68
2023/07/04 13:00:26;;;;;;;;;;;36.30;18.80;;;;;;6307356;22;19906;-69
2023/07/04 13:02:52;;;;;;;;;;;36.30;19.00;;;;;;6306793;22;19956;-70
2023/07/04 13:05:18;;;;;;;;;;;36.30;18.70;;;;;;6275387;22;19906;-70
2023/07/04 13:07:44;;;;;;;;;;;36.10;19.00;;;;;;6306738;22;19972;-68
2023/07/04 13:10:10;;;;;;;;;;;36.00;19.30;;;;;;6306254;22;20324;-69
2023/07/04 13:12:36;;;;;;;;;;;35.80;19.50;;;;;;6279630;22;19914;-70
2023/07/04 13:15:05;;;;;;;;;;;35.60;19.30;;;;;;6303587;22;19915;-69
2023/07/04 13:17:31;;;;;;;;;;;35.30;19.80;;;;;;6306493;22;20363;-69
2023/07/04 13:19:56;;;;;;;;;;;35.00;19.90;;;;;;6306402;22;19911;-69
2023/07/04 13:22:24;;;;;;;;;;;34.80;20.00;;;;;;6306722;22;19960;-69
2023/07/04 13:24:52;;;;;;;;;;;34.40;20.10;;;;;;6303534;22;19903;-69
2023/07/04 13:27:22;;;;;;;;;;;34.00;20.40;;;;;;6305275;22;19913;-70
2023/07/04 13:29:52;;;;;;;;;;;33.60;20.70;;;;;;6306978;22;20221;-69
2023/07/04 13:32:21;;;;;;;;;;;33.40;21.10;;;;;;6306108;22;20309;-70
2023/07/04 13:34:47;;;;;;;;;;;33.30;21.60;;;;;;6303181;22;19903;-69
2023/07/04 13:37:12;;;;;;;;;;;33.30;21.70;;;;;;6307118;22;19913;-69
2023/07/04 13:39:38;;;;;;;;;;;33.40;21.80;;;;;;6306461;22;19903;-69
2023/07/04 13:42:03;;;;;;;;;;;33.30;22.00;;;;;;6307202;22;19911;-68
2023/07/04 13:44:29;;;;;;;;;;;33.20;22.20;;;;;;6303188;22;19982;-69
2023/07/04 13:46:55;;;;;;;;;;;32.90;22.10;;;;;;6306686;22;19974;-69
2023/07/04 13:49:20;;;;;;;;;;;32.60;22.30;;;;;;6306164;22;19919;-69
2023/07/04 13:51:46;;;;;;;;;;;32.30;22.70;;;;;;6307438;22;20320;-69
2023/07/04 13:54:12;;;;;;;;;;;32.20;22.90;;;;;;6302967;22;20271;-69
2023/07/04 13:56:37;;;;;;;;;;;32.20;23.20;;;;;;6306185;22;19915;-68
2023/07/04 13:59:03;;;;;;;;;;;32.40;23.30;;;;;;6278531;22;19907;-68
2023/07/04 14:01:29;;;;;;;;;;;32.70;23.20;;;;;;6306943;22;20321;-69
2023/07/04 14:03:54;;;;;;;;;;;32.90;23.30;;;;;;6303477;22;20325;-69
2023/07/04 14:06:20;;;;;;;;;;;33.20;23.20;;;;;;6278789;22;20240;-69
2023/07/04 14:08:46;;;;;;;;;;;33.40;23.00;;;;;;6306469;22;19907;-70
2023/07/04 14:11:12;;;;;;;;;;;33.40;22.90;;;;;;6305904;22;19911;-68
2023/07/04 14:13:38;;;;;;;;;;;33.40;22.90;;;;;;6305189;22;19964;-68
2023/07/04 14:16:04;;;;;;;;;;;33.30;22.90;;;;;;6304483;22;19910;-69